SBPA/POA METAR and TAF weather

Enter ICAO airport designator
Station Type Date Time Source
SBPA METAR 2022/11/27 10:00 UTC NOAA

SBPA 271000Z 11014KT 9000 SCT013 23/20 Q1018


Station Type Date Time Source
SBPA Decoded METAR 2022/11/27 10:00 UTC NOAA

Porto Alegre Aero-Porto , Brazil (SBPA) 30-00S 051-11W 3M
Nov 27, 2022 - 05:00 AM EST / 2022.11.27 1000 UTC
Wind: from the ESE (110 degrees) at 16 MPH (14 KT):0
Visibility: 5 mile(s):0
Sky conditions: partly cloudy
Temperature: 73 F (23 C)
Dew Point: 68 F (20 C)
Relative Humidity: 83%
Pressure (altimeter): 30.06 in. Hg (1018 hPa)
ob: SBPA 271000Z 11014KT 9000 SCT013 23/20 Q1018
cycle: 10

Station Type Date Time Source
SBPA TAF 2022/11/27 12:29 UTC NOAA

TAF SBPA 270900Z 2712/2812 11015G30KT 9999 SCT012 BKN025 TX28/2718Z TN20/2805Z
BECMG 2713/2715 SCT030
BECMG 2720/2722 11012KT CAVOK
BECMG 2804/2806 9999 SCT010
BECMG 2809/2811 11015G30KT
RMK PEG

Example: see airport list